Time;durP1;ratioP1;P1;durP2;ratioP2;P2;SDS_P1;SDS_P2;PMS_P1;PMS_P2;Temp;Humidity;BMP_temperature;BMP_pressure;BME280_temperature;BME280_humidity;BME280_pressure;Samples;Min_cycle;Max_cycle;Signal;HPM_P1;HPM_P2
2024/01/20 00:00:19;;;;;;;5.17;2.23;;;-0.50;99.90;;;-2.48;87.58;100873.03;10210992;28;96583;-89
2024/01/20 00:05:22;;;;;;;3.40;1.93;;;-0.40;99.90;;;-2.41;87.65;100894.41;10211654;28;96511;-89
2024/01/20 00:10:26;;;;;;;6.07;2.40;;;-0.40;99.90;;;-2.52;88.34;100891.44;10212256;28;96499;-89
2024/01/20 00:15:30;;;;;;;7.40;2.50;;;-0.40;99.90;;;-2.51;88.25;100893.16;10228663;28;96605;-89
2024/01/20 00:20:33;;;;;;;7.57;2.80;;;-0.40;99.90;;;-2.53;87.69;100900.16;10222269;28;96952;-90
2024/01/20 00:25:37;;;;;;;8.60;3.03;;;-0.40;99.90;;;-2.61;88.35;100910.91;10207989;28;96690;-88
2024/01/20 00:30:41;;;;;;;6.93;2.43;;;-0.50;99.90;;;-2.71;89.88;100912.22;10221230;28;97837;-88
2024/01/20 00:35:45;;;;;;;10.17;2.80;;;-0.60;99.90;;;-2.79;90.27;100911.72;10210192;28;96619;-89
2024/01/20 00:40:48;;;;;;;14.80;2.87;;;-0.70;99.90;;;-2.83;91.21;100918.78;10239240;28;96742;-89
2024/01/20 00:45:52;;;;;;;8.60;3.03;;;-0.70;99.90;;;-2.92;92.03;100934.78;10211048;28;97046;-89
2024/01/20 00:50:55;;;;;;;12.27;3.97;;;-0.80;99.90;;;-3.04;93.37;100943.94;10225418;28;96508;-88
2024/01/20 00:55:59;;;;;;;14.07;4.33;;;-0.90;99.90;;;-3.06;94.37;100931.91;10208257;28;96631;-89
2024/01/20 01:01:02;;;;;;;7.80;3.40;;;-1.00;99.90;;;-3.03;94.66;100937.84;10177847;28;96402;-89
2024/01/20 01:06:06;;;;;;;8.03;3.80;;;-0.90;99.90;;;-2.99;94.15;100949.81;10182254;28;98149;-88
2024/01/20 01:11:10;;;;;;;6.30;3.17;;;-0.80;99.90;;;-2.96;94.23;100969.63;10231683;28;96519;-88
2024/01/20 01:16:13;;;;;;;7.93;3.20;;;-0.90;99.90;;;-2.92;93.55;100991.16;10232687;28;96542;-88
2024/01/20 01:21:17;;;;;;;5.20;2.30;;;-0.80;99.90;;;-2.88;93.75;100982.31;10215863;28;96637;-89
2024/01/20 01:26:20;;;;;;;5.60;2.93;;;-0.80;99.90;;;-2.91;93.98;100990.25;10216031;28;96651;-88
2024/01/20 01:31:24;;;;;;;9.87;3.47;;;-0.80;99.90;;;-2.98;94.68;100982.72;10213714;28;96468;-88
2024/01/20 01:36:27;;;;;;;6.27;2.73;;;-0.90;99.90;;;-3.04;95.44;100985.56;10230539;28;97552;-88
2024/01/20 01:41:31;;;;;;;7.67;3.17;;;-0.90;99.90;;;-3.16;96.28;100972.22;10215577;28;96568;-88
2024/01/20 01:46:34;;;;;;;7.43;2.83;;;-1.00;99.90;;;-3.09;97.20;100981.44;10231012;28;96449;-88
2024/01/20 01:51:39;;;;;;;6.57;2.77;;;-1.00;99.90;;;-2.99;96.88;100974.97;10230695;28;96597;-87
2024/01/20 01:56:46;;;;;;;5.23;3.03;;;-0.90;99.90;;;-2.97;97.16;100979.19;10214431;28;96689;-87
2024/01/20 02:01:49;;;;;;;6.97;2.60;;;-0.90;99.90;;;-2.89;97.38;100983.22;10224654;28;97989;-88
2024/01/20 02:06:53;;;;;;;6.67;2.90;;;-0.80;99.90;;;-2.82;96.99;100974.25;10212495;28;96615;-90
2024/01/20 02:11:57;;;;;;;4.40;2.47;;;-0.70;99.90;;;-2.68;95.32;100977.16;10228140;28;96474;-88
2024/01/20 02:17:01;;;;;;;9.00;3.37;;;-0.60;99.90;;;-2.61;94.87;100980.31;10215231;28;96387;-88
2024/01/20 02:22:16;;;;;;;7.60;2.53;;;-0.60;99.90;;;-2.55;94.05;100999.13;10212376;28;96536;-89
2024/01/20 02:27:19;;;;;;;6.27;2.47;;;-0.50;99.90;;;-2.56;93.78;101010.44;10212906;28;96546;-89
2024/01/20 02:32:23;;;;;;;8.67;2.73;;;-0.50;99.90;;;-2.52;93.32;101017.22;10210442;28;96532;-91
2024/01/20 02:37:27;;;;;;;9.03;2.57;;;-0.50;99.90;;;-2.54;93.33;101021.63;10193062;28;96694;-89
2024/01/20 02:42:32;;;;;;;5.73;2.80;;;-0.50;99.90;;;-2.57;93.22;101011.38;10226849;28;96725;-89
2024/01/20 02:47:35;;;;;;;10.70;3.20;;;-0.50;99.90;;;-2.58;93.32;101017.50;10228775;28;96448;-89
2024/01/20 02:52:39;;;;;;;9.10;3.33;;;-0.50;99.90;;;-2.61;93.51;101025.41;10228771;28;96902;-89
2024/01/20 02:57:42;;;;;;;7.90;3.03;;;-0.50;99.90;;;-2.59;93.74;101027.94;10214609;28;96586;-90
2024/01/20 03:02:46;;;;;;;9.77;3.27;;;-0.50;99.90;;;-2.62;94.44;101044.53;10212877;28;97681;-88
2024/01/20 03:07:49;;;;;;;11.17;3.23;;;-0.60;99.90;;;-2.61;93.80;101028.00;10228502;28;96754;-88
2024/01/20 03:12:53;;;;;;;7.10;2.87;;;-0.50;99.90;;;-2.64;93.54;101022.06;10209345;28;96591;-90
2024/01/20 03:17:56;;;;;;;5.87;3.07;;;-0.50;99.90;;;-2.53;93.23;101015.50;10228474;28;97560;-89
2024/01/20 03:23:01;;;;;;;7.97;2.87;;;-0.50;99.90;;;-2.50;93.08;101032.78;10210777;28;96548;-91
2024/01/20 03:28:04;;;;;;;6.43;2.80;;;-0.50;99.90;;;-2.52;93.01;101053.66;10211520;28;96491;-90
2024/01/20 03:33:08;;;;;;;10.67;3.07;;;-0.40;99.90;;;-2.55;93.39;101069.41;10213108;28;96518;-90
2024/01/20 03:38:12;;;;;;;10.57;3.23;;;-0.50;99.90;;;-2.61;93.55;101074.84;10227045;28;96496;-89
2024/01/20 03:43:16;;;;;;;6.73;2.93;;;-0.50;99.90;;;-2.66;93.64;101068.97;10253682;28;97331;-89
2024/01/20 03:48:19;;;;;;;7.70;3.03;;;-0.60;99.90;;;-2.64;93.22;101068.91;10229570;28;96655;-90
2024/01/20 03:53:23;;;;;;;7.03;2.57;;;-0.60;99.90;;;-2.63;93.27;101071.47;10226379;28;96751;-89
2024/01/20 03:58:27;;;;;;;7.27;2.93;;;-0.50;99.90;;;-2.59;92.39;101061.78;10204387;28;96427;-89
2024/01/20 04:03:31;;;;;;;8.13;2.53;;;-0.50;99.90;;;-2.54;91.31;101058.06;10193026;28;96538;-90
2024/01/20 04:08:36;;;;;;;5.10;2.93;;;-0.50;99.90;;;-2.52;91.27;101064.06;10193207;28;96696;-89
2024/01/20 04:13:39;;;;;;;7.83;2.73;;;-0.40;99.90;;;-2.51;90.47;101057.97;10211110;28;96568;-89
2024/01/20 04:18:43;;;;;;;7.77;2.57;;;-0.40;99.90;;;-2.50;89.91;101067.44;10226039;28;96597;-90
2024/01/20 04:23:51;;;;;;;6.63;2.60;;;-0.40;99.90;;;-2.45;88.65;101070.72;10207696;28;96593;-90
2024/01/20 04:28:55;;;;;;;8.13;3.20;;;-0.40;99.90;;;-2.66;89.91;101068.13;10211084;28;96600;-89
2024/01/20 04:33:59;;;;;;;7.40;2.97;;;-0.50;99.90;;;-2.82;91.91;101093.91;10225372;28;96973;-90
2024/01/20 04:39:02;;;;;;;8.67;3.30;;;-0.70;99.90;;;-2.96;94.25;101108.31;10234074;28;96498;-89
2024/01/20 04:44:06;;;;;;;7.80;2.87;;;-0.90;99.90;;;-3.04;95.18;101114.72;10204465;28;96468;-89
2024/01/20 04:49:10;;;;;;;10.10;3.47;;;-0.90;99.90;;;-3.07;95.55;101102.66;10217602;28;97602;-89
2024/01/20 04:54:13;;;;;;;6.77;2.53;;;-1.00;99.90;;;-3.02;95.42;101113.75;10209272;28;97068;-89
2024/01/20 04:59:17;;;;;;;5.93;2.63;;;-1.00;99.90;;;-2.94;94.99;101118.66;10209933;28;96503;-88
2024/01/20 05:04:20;;;;;;;6.23;3.03;;;-0.90;99.90;;;-2.93;94.98;101119.53;10224540;28;96528;-89
2024/01/20 05:09:24;;;;;;;5.93;2.60;;;-0.90;99.90;;;-2.88;94.42;101120.16;10201006;28;96557;-89
2024/01/20 05:14:28;;;;;;;12.10;4.73;;;-0.80;99.90;;;-2.87;94.16;101127.94;10223542;28;96740;-89
2024/01/20 05:19:32;;;;;;;8.87;3.30;;;-0.80;99.90;;;-2.84;94.28;101135.59;10210422;28;96467;-90
2024/01/20 05:24:35;;;;;;;10.47;3.13;;;-0.80;99.90;;;-2.81;94.10;101158.06;10207184;28;96496;-89
2024/01/20 05:29:39;;;;;;;6.23;2.80;;;-0.80;99.90;;;-2.88;94.14;101156.56;10215202;28;96612;-89
2024/01/20 05:34:43;;;;;;;8.33;3.23;;;-0.80;99.90;;;-2.89;94.52;101163.53;10218402;28;96666;-89
2024/01/20 05:39:46;;;;;;;6.30;2.87;;;-0.90;99.90;;;-2.93;94.98;101166.34;10188099;28;96776;-88
2024/01/20 05:44:49;;;;;;;14.20;4.30;;;-0.90;99.90;;;-2.94;95.06;101162.84;10211665;28;96575;-87
2024/01/20 05:49:52;;;;;;;13.30;3.73;;;-0.90;99.90;;;-2.94;95.67;101170.66;10215875;28;96535;-88
2024/01/20 05:54:56;;;;;;;7.83;3.63;;;-0.90;99.90;;;-2.88;95.33;101185.19;10216099;28;96809;-88
2024/01/20 06:00:00;;;;;;;14.03;4.27;;;-0.90;99.90;;;-2.89;95.30;101201.72;10215245;28;98410;-87
2024/01/20 06:05:05;;;;;;;10.90;3.77;;;-0.90;99.90;;;-2.88;95.27;101208.59;10215501;28;96491;-88
2024/01/20 06:10:09;;;;;;;10.57;3.47;;;-0.90;99.90;;;-2.95;96.06;101210.59;10246559;28;96339;-88
2024/01/20 06:15:12;;;;;;;7.57;3.03;;;-0.90;99.90;;;-3.05;97.11;101210.09;10212486;28;96573;-88
2024/01/20 06:20:17;;;;;;;6.67;3.40;;;-0.90;99.90;;;-3.09;97.74;101211.09;10208518;28;96436;-89
2024/01/20 06:25:21;;;;;;;15.67;5.33;;;-1.00;99.90;;;-3.19;99.03;101212.34;10245027;28;97971;-89
2024/01/20 06:30:25;;;;;;;12.63;5.13;;;-1.00;99.90;;;-3.15;99.33;101220.88;10201022;28;98040;-89
2024/01/20 06:35:28;;;;;;;13.50;5.03;;;-1.00;99.90;;;-3.24;100.00;101222.03;10244899;28;96456;-89
2024/01/20 06:40:31;;;;;;;14.03;5.57;;;-1.10;99.90;;;-3.27;100.00;101245.56;10231836;28;96654;-88
2024/01/20 06:45:35;;;;;;;8.87;4.00;;;-1.10;99.90;;;-3.27;100.00;101245.56;10213741;28;96527;-88
2024/01/20 06:50:43;;;;;;;10.10;3.83;;;-1.10;99.90;;;-3.21;100.00;101254.91;10203461;28;96829;-88
2024/01/20 06:55:47;;;;;;;9.83;4.67;;;-1.10;99.90;;;-3.21;100.00;101271.34;10196129;28;98349;-88
2024/01/20 07:00:50;;;;;;;10.03;4.00;;;-1.10;99.90;;;-3.16;100.00;101284.19;10236519;28;96581;-88
2024/01/20 07:05:54;;;;;;;11.10;4.80;;;-1.00;99.90;;;-2.65;100.00;101307.44;10213143;28;96592;-87
2024/01/20 07:10:58;;;;;;;9.63;5.17;;;-0.90;99.90;;;-2.07;100.00;101300.03;10213439;28;96626;-87
2024/01/20 07:16:11;;;;;;;11.43;4.83;;;-0.70;99.90;;;-1.52;100.00;101309.97;10224999;28;97595;-89
2024/01/20 07:21:15;;;;;;;14.97;5.70;;;-0.40;99.90;;;-0.98;100.00;101309.38;10209293;28;97195;-90
2024/01/20 07:26:18;;;;;;;26.10;7.93;;;-0.10;99.90;;;-0.57;92.34;101319.75;10211705;28;96534;-89
2024/01/20 07:31:22;;;;;;;20.10;10.37;;;0.30;99.90;;;-0.17;91.81;101328.38;10234425;28;97956;-90
2024/01/20 07:36:26;;;;;;;7.47;3.97;;;0.60;99.90;;;0.19;86.18;101331.88;10251739;28;96532;-90
2024/01/20 07:41:29;;;;;;;10.03;3.43;;;1.00;99.90;;;0.26;79.08;101345.50;10250970;28;96947;-90
2024/01/20 07:46:32;;;;;;;8.10;3.23;;;1.20;99.90;;;0.30;77.22;101348.78;10229132;28;96625;-89
2024/01/20 07:51:36;;;;;;;6.40;2.77;;;1.30;99.90;;;0.48;74.55;101345.28;10194134;28;96436;-89
2024/01/20 07:56:39;;;;;;;5.67;2.50;;;1.30;99.90;;;0.74;74.51;101344.84;10214469;28;96328;-89
2024/01/20 08:01:43;;;;;;;8.20;3.10;;;1.50;99.90;;;0.68;73.15;101347.75;10213089;28;96576;-89
2024/01/20 08:06:47;;;;;;;6.23;2.40;;;1.70;99.90;;;0.80;72.32;101352.38;10225191;28;97971;-90
2024/01/20 08:11:50;;;;;;;8.90;2.77;;;1.90;99.90;;;0.91;72.40;101351.00;10211370;28;96593;-90
2024/01/20 08:16:54;;;;;;;7.63;2.73;;;2.10;99.70;;;0.99;71.42;101364.53;10210001;28;96634;-90
2024/01/20 08:21:57;;;;;;;29.80;14.53;;;2.20;99.70;;;1.11;72.02;101369.13;10210331;28;96522;-90
2024/01/20 08:27:01;;;;;;;11.27;3.67;;;2.40;99.50;;;1.35;72.51;101361.78;10239977;28;98062;-90
2024/01/20 08:32:05;;;;;;;7.17;3.13;;;2.70;99.90;;;1.42;69.40;101372.78;10202924;28;96622;-89
2024/01/20 08:37:08;;;;;;;9.43;3.30;;;2.90;99.00;;;1.47;69.50;101376.00;10210240;28;98007;-90
2024/01/20 08:42:12;;;;;;;10.03;4.37;;;3.00;98.50;;;1.66;68.40;101370.63;10209931;28;96600;-90
2024/01/20 08:47:15;;;;;;;9.80;2.90;;;3.20;98.20;;;1.79;67.21;101369.03;10217849;28;96511;-89
2024/01/20 08:52:19;;;;;;;11.20;3.20;;;3.50;97.80;;;1.85;66.84;101366.94;10212236;28;96484;-87
2024/01/20 08:57:23;;;;;;;6.47;2.10;;;3.70;97.90;;;1.99;65.38;101381.09;10225205;28;96499;-90
2024/01/20 09:02:27;;;;;;;3.97;2.03;;;3.90;97.00;;;2.32;65.23;101396.72;10207478;28;97021;-88
2024/01/20 09:07:30;;;;;;;7.60;2.63;;;4.30;97.40;;;2.50;62.34;101403.56;10207391;28;97973;-87
2024/01/20 09:12:34;;;;;;;9.17;5.40;;;4.50;96.90;;;2.53;62.38;101402.56;10210050;28;96456;-87
2024/01/20 09:17:37;;;;;;;9.43;3.90;;;4.50;95.90;;;2.22;62.41;101411.25;10209483;28;96802;-88
2024/01/20 09:22:41;;;;;;;7.53;2.03;;;4.20;94.50;;;2.04;62.99;101413.13;10230354;28;97213;-90
2024/01/20 09:27:44;;;;;;;6.70;2.70;;;4.10;94.50;;;2.37;64.20;101420.91;10207480;28;96671;-88
2024/01/20 09:32:48;;;;;;;7.80;3.97;;;4.30;95.00;;;3.04;65.77;101400.47;10248028;28;98405;-88
2024/01/20 09:37:52;;;;;;;5.47;2.17;;;4.90;95.90;;;3.48;57.48;101406.56;10246945;28;96470;-87
2024/01/20 09:42:56;;;;;;;6.97;3.07;;;5.60;94.30;;;3.79;56.74;101404.69;10260525;28;98153;-87
2024/01/20 09:48:00;;;;;;;8.43;3.40;;;5.80;92.20;;;4.23;56.60;101403.66;10221041;28;96752;-87
2024/01/20 09:53:16;;;;;;;7.73;2.73;;;6.20;93.50;;;4.43;53.50;101395.31;10214672;28;96619;-88
2024/01/20 09:58:22;;;;;;;6.53;2.73;;;6.40;91.10;;;4.72;53.61;101382.06;10231057;28;96529;-87
2024/01/20 10:03:30;;;;;;;6.93;3.30;;;6.50;91.80;;;4.57;54.27;101382.13;10222125;28;96638;-87
2024/01/20 10:08:33;;;;;;;8.47;3.43;;;6.40;91.10;;;3.85;56.77;101378.00;10190400;28;96527;-87
2024/01/20 10:13:41;;;;;;;7.80;3.37;;;5.70;90.80;;;3.27;58.03;101381.56;10226500;28;98093;-87
2024/01/20 10:18:44;;;;;;;9.33;4.33;;;5.30;90.70;;;2.80;60.75;101397.50;10205808;28;96784;-86
2024/01/20 10:23:48;;;;;;;14.67;6.40;;;4.80;91.10;;;2.54;62.33;101385.88;10212729;28;96847;-88
2024/01/20 10:28:54;;;;;;;17.77;7.80;;;4.70;91.80;;;2.37;62.28;101382.41;10212011;28;97151;-86
2024/01/20 10:33:58;;;;;;;15.77;6.27;;;4.50;91.40;;;2.12;64.13;101374.22;10211346;28;98062;-87
2024/01/20 10:39:02;;;;;;;14.87;6.63;;;4.20;91.80;;;1.80;66.56;101375.97;10211393;28;97003;-88
2024/01/20 10:44:12;;;;;;;21.77;9.30;;;3.80;92.40;;;1.65;68.70;101382.91;10207033;28;96575;-86
2024/01/20 10:49:19;;;;;;;11.50;4.57;;;3.60;92.90;;;1.51;69.68;101377.56;10224072;28;98319;-89
2024/01/20 10:54:24;;;;;;;16.67;6.67;;;3.40;93.30;;;1.51;70.53;101381.00;10254131;28;97049;-85
2024/01/20 10:59:32;;;;;;;11.90;4.97;;;3.60;94.20;;;2.13;70.42;101383.78;10230326;28;97788;-86
2024/01/20 11:04:38;;;;;;;8.33;4.23;;;4.20;94.70;;;2.69;65.51;101391.06;10211952;28;96590;-86
2024/01/20 11:09:41;;;;;;;10.57;5.43;;;4.80;93.10;;;2.69;67.01;101383.19;10230327;28;97317;-86
2024/01/20 11:14:53;;;;;;;11.80;4.70;;;4.70;93.20;;;2.74;65.67;101388.19;10221706;28;97497;-86
2024/01/20 11:20:07;;;;;;;13.07;6.43;;;4.90;93.00;;;3.05;64.53;101387.22;10207882;28;97072;-87
2024/01/20 11:25:12;;;;;;;14.03;6.17;;;5.20;93.00;;;3.03;65.58;101375.16;10201771;28;96705;-87
2024/01/20 11:30:34;;;;;;;9.87;5.00;;;5.10;92.70;;;2.68;67.04;101383.28;10209988;28;97121;-87
2024/01/20 11:35:38;;;;;;;10.73;4.90;;;4.60;92.80;;;2.20;69.97;101372.03;10212777;28;97807;-85
2024/01/20 11:40:42;;;;;;;10.30;4.40;;;4.10;93.30;;;2.02;70.88;101368.63;10210000;28;96641;-85
2024/01/20 11:45:46;;;;;;;11.50;4.70;;;3.90;93.70;;;2.00;73.20;101359.19;10209703;28;98316;-88
2024/01/20 11:50:50;;;;;;;15.67;6.00;;;3.80;94.10;;;1.96;69.78;101368.13;10226828;28;96680;-85
2024/01/20 11:55:59;;;;;;;14.53;5.07;;;3.80;93.70;;;1.87;68.40;101361.63;10213025;28;96520;-85
2024/01/20 12:01:03;;;;;;;13.90;5.27;;;3.70;93.40;;;1.76;70.37;101356.97;10212561;28;96554;-86
2024/01/20 12:06:08;;;;;;;11.00;5.10;;;3.70;93.50;;;1.67;72.48;101352.19;10228523;28;96424;-88
2024/01/20 12:11:19;;;;;;;17.80;6.83;;;3.60;94.10;;;1.64;73.23;101357.63;10224814;28;96527;-90
2024/01/20 12:16:22;;;;;;;17.10;5.23;;;3.50;94.40;;;1.59;74.43;101354.41;10230719;28;97140;-88
2024/01/20 12:21:27;;;;;;;13.80;5.47;;;3.50;94.60;;;1.50;73.82;101339.16;10223262;28;98011;-86
2024/01/20 12:26:31;;;;;;;12.20;4.77;;;3.40;94.60;;;1.48;73.97;101347.09;10224793;28;98430;-87
2024/01/20 12:31:35;;;;;;;11.37;5.23;;;3.40;94.80;;;1.45;73.33;101335.97;10235578;28;96719;-87
2024/01/20 12:36:39;;;;;;;13.33;4.67;;;3.40;94.70;;;1.41;74.34;101344.91;10189233;28;96705;-87
2024/01/20 12:41:42;;;;;;;13.53;4.80;;;3.30;94.90;;;1.28;74.05;101329.00;10205667;28;96839;-88
2024/01/20 12:46:47;;;;;;;9.73;4.33;;;3.20;94.90;;;1.25;74.02;101337.84;10228021;28;97279;-89
2024/01/20 12:51:51;;;;;;;11.13;4.43;;;3.20;95.00;;;1.18;74.70;101333.84;10207485;28;96681;-89
2024/01/20 12:56:54;;;;;;;10.80;4.50;;;3.10;95.10;;;1.15;76.28;101339.28;10209072;28;96522;-89
2024/01/20 13:01:58;;;;;;;10.67;4.97;;;3.00;95.40;;;1.15;77.16;101341.03;10210942;28;96703;-90
2024/01/20 13:07:01;;;;;;;14.20;5.23;;;3.00;95.70;;;1.11;78.71;101329.88;10211598;28;96580;-89
2024/01/20 13:12:05;;;;;;;13.90;4.90;;;3.10;96.10;;;1.22;75.30;101335.41;10209472;28;96489;-90
2024/01/20 13:17:09;;;;;;;11.13;5.10;;;3.10;95.60;;;1.24;75.74;101348.41;10234521;28;96504;-89
2024/01/20 13:22:12;;;;;;;12.47;5.50;;;3.10;95.50;;;1.24;74.81;101364.13;10209488;28;96440;-90
2024/01/20 13:27:15;;;;;;;12.23;4.70;;;3.20;95.40;;;1.15;76.19;101372.47;10210306;28;96662;-90
2024/01/20 13:32:19;;;;;;;17.23;5.27;;;3.10;95.50;;;1.04;76.35;101380.84;10209145;28;98344;-90
2024/01/20 13:37:23;;;;;;;15.10;5.83;;;3.00;95.70;;;1.00;78.26;101377.53;10223645;28;96520;-90
2024/01/20 13:42:27;;;;;;;8.73;4.60;;;2.90;95.90;;;0.98;78.47;101386.41;10208032;28;96553;-88
2024/01/20 13:47:32;;;;;;;9.97;5.03;;;2.90;96.10;;;0.92;77.43;101386.72;10203189;28;96786;-89
2024/01/20 13:52:36;;;;;;;13.83;5.50;;;2.90;95.90;;;0.92;76.21;101391.94;10203712;28;96971;-89
2024/01/20 13:57:39;;;;;;;15.27;6.43;;;2.90;95.90;;;0.92;74.54;101405.03;10210016;28;96432;-88
2024/01/20 14:02:44;;;;;;;16.93;5.37;;;2.90;95.50;;;0.87;72.65;101394.78;10207450;28;96544;-88
2024/01/20 14:07:48;;;;;;;8.60;3.70;;;2.80;95.10;;;0.86;70.86;101394.88;10231490;28;96810;-88
2024/01/20 14:12:51;;;;;;;12.27;4.60;;;2.80;94.60;;;0.84;69.63;101391.47;10212929;28;96657;-91
2024/01/20 14:17:55;;;;;;;12.13;4.50;;;2.80;94.20;;;0.76;69.47;101400.53;10240036;28;96779;-91
2024/01/20 14:22:59;;;;;;;13.43;4.33;;;2.70;94.30;;;0.63;68.62;101383.75;10231966;28;96465;-87
2024/01/20 14:28:03;;;;;;;14.97;4.70;;;2.70;93.60;;;0.57;69.24;101405.00;10214934;28;96388;-88
2024/01/20 14:33:07;;;;;;;9.87;3.83;;;2.50;93.70;;;0.52;67.81;101409.59;10230775;28;96582;-89
2024/01/20 14:38:13;;;;;;;13.13;4.60;;;2.50;93.70;;;0.44;67.86;101406.50;10228580;28;96515;-89
2024/01/20 14:43:17;;;;;;;11.40;3.70;;;2.40;93.30;;;0.29;68.58;101399.38;10245653;28;96403;-88
2024/01/20 14:48:21;;;;;;;8.10;3.43;;;2.30;93.40;;;0.16;68.47;101399.97;10211288;28;96495;-90
2024/01/20 14:53:24;;;;;;;12.20;3.27;;;2.20;93.40;;;0.01;68.99;101411.16;10214831;28;96487;-88
2024/01/20 14:58:28;;;;;;;8.20;3.20;;;2.00;93.40;;;-0.08;70.48;101411.56;10212357;28;97116;-89
2024/01/20 15:03:32;;;;;;;10.63;3.77;;;1.90;93.70;;;-0.13;71.37;101413.53;10201637;28;97942;-88
2024/01/20 15:08:36;;;;;;;6.33;3.17;;;1.80;94.00;;;-0.17;71.03;101410.22;10221827;28;96699;-88
2024/01/20 15:13:40;;;;;;;14.23;4.97;;;1.80;93.90;;;-0.28;71.82;101410.69;10212618;28;96610;-88
2024/01/20 15:18:46;;;;;;;7.17;3.30;;;1.70;94.00;;;-0.38;71.83;101409.41;10226599;28;96597;-88
2024/01/20 15:23:50;;;;;;;7.07;2.83;;;1.70;94.10;;;-0.46;71.94;101405.44;10196284;28;96440;-89
2024/01/20 15:28:53;;;;;;;9.00;3.20;;;1.60;94.10;;;-0.48;72.02;101417.72;10209302;28;96804;-90
2024/01/20 15:33:59;;;;;;;9.33;3.93;;;1.50;94.20;;;-0.43;71.48;101405.31;10242538;28;96688;-90
2024/01/20 15:39:03;;;;;;;7.57;3.47;;;1.50;94.10;;;-0.44;71.54;101422.75;10212814;28;96484;-86
2024/01/20 15:44:07;;;;;;;7.50;3.90;;;1.50;94.30;;;-0.38;70.83;101416.41;10205779;28;96583;-87
2024/01/20 15:49:13;;;;;;;9.27;3.87;;;1.60;93.90;;;-0.45;72.09;101422.81;10212368;28;97149;-87
2024/01/20 15:54:17;;;;;;;9.90;3.87;;;1.60;94.10;;;-0.55;72.23;101432.78;10208341;28;96827;-87
2024/01/20 15:59:24;;;;;;;11.60;3.63;;;1.50;94.20;;;-0.70;72.97;101452.59;10226794;28;97389;-87
2024/01/20 16:04:28;;;;;;;9.83;4.07;;;1.30;94.20;;;-0.84;74.78;101449.69;10230144;28;96549;-87
2024/01/20 16:09:32;;;;;;;9.23;4.33;;;1.20;94.60;;;-0.91;76.22;101451.72;10210708;28;98033;-88
2024/01/20 16:14:36;;;;;;;10.27;4.87;;;1.10;95.00;;;-0.99;78.77;101443.38;10218184;28;96597;-88
2024/01/20 16:19:39;;;;;;;11.57;4.80;;;1.10;95.70;;;-0.96;81.74;101451.09;10211533;28;96589;-88
2024/01/20 16:24:43;;;;;;;8.37;4.70;;;1.00;96.60;;;-0.92;79.99;101450.03;10236936;28;96610;-87
2024/01/20 16:29:47;;;;;;;9.53;4.23;;;1.00;96.30;;;-0.96;78.76;101438.03;10231363;28;98383;-87
2024/01/20 16:34:50;;;;;;;14.17;4.67;;;1.00;96.00;;;-0.97;78.65;101433.72;10247281;28;96583;-87
2024/01/20 16:39:59;;;;;;;11.00;4.63;;;1.00;95.90;;;-0.92;77.78;101436.13;10216589;28;96588;-88
2024/01/20 16:45:04;;;;;;;9.67;4.97;;;1.10;95.90;;;-0.86;77.55;101446.31;10209425;28;96576;-89
2024/01/20 16:50:08;;;;;;;15.57;5.90;;;1.10;95.80;;;-0.81;79.11;101447.81;10201369;28;96581;-88
2024/01/20 16:55:12;;;;;;;10.13;4.60;;;1.10;96.20;;;-0.82;79.87;101472.22;10210190;28;97060;-88
2024/01/20 17:00:18;;;;;;;16.83;4.43;;;1.10;96.40;;;-0.87;80.63;101474.19;10209780;28;96627;-88
2024/01/20 17:05:24;;;;;;;9.50;4.60;;;1.10;96.60;;;-0.97;82.03;101482.44;10208390;28;98128;-88
2024/01/20 17:10:29;;;;;;;12.70;6.20;;;1.00;96.80;;;-1.08;82.81;101483.75;10209393;28;96422;-88
2024/01/20 17:15:33;;;;;;;16.23;5.73;;;0.90;97.00;;;-1.12;83.87;101494.38;10224108;28;96701;-86
2024/01/20 17:20:37;;;;;;;12.23;5.30;;;0.90;97.50;;;-1.18;84.81;101489.41;10206872;28;96665;-87
2024/01/20 17:25:41;;;;;;;16.33;6.03;;;0.80;97.60;;;-1.25;85.20;101498.38;10210020;28;96465;-89
2024/01/20 17:30:44;;;;;;;12.40;5.87;;;0.70;97.70;;;-1.27;85.70;101503.63;10206958;28;96613;-90
2024/01/20 17:35:52;;;;;;;15.20;6.20;;;0.70;98.00;;;-1.29;85.84;101502.84;10206429;28;96519;-89
2024/01/20 17:40:56;;;;;;;12.07;5.33;;;0.70;98.00;;;-1.17;84.06;101494.53;10212410;28;96591;-87
2024/01/20 17:46:00;;;;;;;11.87;5.43;;;0.70;97.60;;;-1.05;82.86;101501.03;10246669;28;96540;-89
2024/01/20 17:51:04;;;;;;;14.03;6.37;;;0.90;97.50;;;-1.01;82.67;101501.75;10217297;28;96480;-88
2024/01/20 17:56:07;;;;;;;18.13;7.37;;;0.90;97.40;;;-1.03;81.78;101501.81;10231362;28;97151;-86
2024/01/20 18:01:11;;;;;;;12.97;5.70;;;0.90;97.50;;;-1.03;81.58;101493.97;10213608;28;96574;-90
2024/01/20 18:06:16;;;;;;;10.03;5.50;;;0.90;97.10;;;-1.07;81.72;101500.25;10202505;28;96599;-87
2024/01/20 18:11:20;;;;;;;14.50;6.30;;;0.90;97.10;;;-1.13;83.17;101498.75;10227321;28;97819;-87
2024/01/20 18:16:23;;;;;;;11.30;5.23;;;0.80;97.30;;;-1.23;83.78;101502.59;10214784;28;96482;-86
2024/01/20 18:21:27;;;;;;;11.07;5.53;;;0.80;97.60;;;-1.22;83.77;101513.88;10204409;28;96507;-88
2024/01/20 18:26:31;;;;;;;12.97;6.30;;;0.70;97.60;;;-1.24;83.75;101515.72;10241959;28;96810;-89
2024/01/20 18:31:35;;;;;;;13.00;6.07;;;0.70;97.60;;;-1.28;83.69;101514.97;10213874;28;96559;-89
2024/01/20 18:36:39;;;;;;;11.33;5.33;;;0.70;97.60;;;-1.18;82.56;101528.53;10224707;28;96980;-88
2024/01/20 18:41:42;;;;;;;13.63;6.17;;;0.70;97.50;;;-1.16;82.82;101531.91;10242455;28;96794;-89
2024/01/20 18:46:46;;;;;;;15.63;6.23;;;0.80;97.50;;;-1.14;83.32;101541.38;10229285;28;96631;-88
2024/01/20 18:51:49;;;;;;;13.33;5.97;;;0.80;97.60;;;-1.25;83.37;101525.31;10222915;28;96558;-88
2024/01/20 18:56:53;;;;;;;14.87;6.30;;;0.80;97.70;;;-1.16;83.58;101545.78;10227697;28;96487;-89
2024/01/20 19:01:56;;;;;;;11.67;5.67;;;0.80;97.70;;;-1.16;83.72;101550.16;10227040;28;97230;-88
2024/01/20 19:07:00;;;;;;;14.17;5.97;;;0.80;97.70;;;-1.13;83.29;101537.03;10213048;28;96766;-88
2024/01/20 19:12:04;;;;;;;12.20;5.87;;;0.80;97.80;;;-1.24;84.25;101550.47;10200869;28;97438;-88
2024/01/20 19:17:14;;;;;;;19.83;7.93;;;0.70;97.90;;;-1.37;85.08;101552.72;10214199;28;96647;-90
2024/01/20 19:22:20;;;;;;;25.40;8.23;;;0.60;98.00;;;-1.52;85.75;101544.59;10187316;28;96525;-89
2024/01/20 19:27:26;;;;;;;32.03;10.83;;;0.50;98.00;;;-1.59;86.99;101548.34;10208724;28;96821;-86
2024/01/20 19:32:29;;;;;;;25.13;9.07;;;0.40;98.10;;;-1.74;86.26;101541.94;10240543;28;97067;-88
2024/01/20 19:37:33;;;;;;;21.10;8.03;;;0.20;98.00;;;-1.82;86.76;101544.84;10210296;28;96544;-88
2024/01/20 19:42:37;;;;;;;12.03;5.33;;;0.20;98.10;;;-1.80;84.28;101549.97;10224841;28;96546;-89
2024/01/20 19:47:40;;;;;;;9.07;4.47;;;0.20;98.00;;;-1.71;82.71;101557.47;10236313;28;96608;-89
2024/01/20 19:52:44;;;;;;;6.63;3.30;;;0.30;97.70;;;-1.60;81.16;101559.69;10212642;28;96514;-89
2024/01/20 19:57:47;;;;;;;7.77;3.33;;;0.30;97.40;;;-1.57;81.55;101556.97;10194101;28;96693;-89
2024/01/20 20:02:51;;;;;;;8.53;3.90;;;0.40;97.20;;;-1.55;80.92;101563.00;10231744;28;96480;-89
2024/01/20 20:07:55;;;;;;;16.47;5.87;;;0.50;97.00;;;-1.64;80.75;101564.16;10226248;28;96519;-90
2024/01/20 20:12:58;;;;;;;9.67;4.13;;;0.40;96.90;;;-1.73;81.60;101554.09;10210689;28;96602;-90
2024/01/20 20:18:02;;;;;;;11.43;4.67;;;0.30;96.90;;;-1.68;80.38;101549.53;10220382;28;97494;-89
2024/01/20 20:23:06;;;;;;;10.37;4.03;;;0.30;96.70;;;-1.68;80.41;101552.13;10210641;28;96499;-90
2024/01/20 20:28:09;;;;;;;16.93;6.90;;;0.40;96.70;;;-1.67;80.29;101540.81;10224051;28;97018;-89
2024/01/20 20:33:13;;;;;;;14.17;6.20;;;0.40;96.40;;;-1.59;79.05;101546.59;10210160;28;96505;-90
2024/01/20 20:38:16;;;;;;;9.00;4.03;;;0.40;96.40;;;-1.51;77.13;101528.91;10210656;28;97724;-88
2024/01/20 20:43:21;;;;;;;13.53;5.07;;;0.50;96.10;;;-1.40;76.43;101534.56;10226513;28;96620;-89
2024/01/20 20:48:25;;;;;;;12.67;5.33;;;0.60;95.80;;;-1.35;75.97;101540.44;10241935;28;96835;-90
2024/01/20 20:53:30;;;;;;;10.47;4.37;;;0.70;95.70;;;-1.30;75.95;101531.59;10208577;28;96658;-91